^^
Station Historical Data
Daily Summary for January 2, 2018 Units:  Metric    English   Both
« Previous Day
Next Day »
Daily Weekly Monthly Yearly Custom
  High: Low: Average:
Temperature: -17.8 °C -17.2 °C -16.2 °C
Dew Point: -17.8 °C -17.7 °C -16.8 °C
Humidity: Humidity% 93% 93%
Wind Speed: 0km/h 0km/h 1.6km/h
Wind Gust: 0km/h - -
Wind- - SSW
Pressure: 0 hPa 33453.7 hPa -
Precipitation: 33.02 mm    
Historical Graphs
 
 
Tabular Data for January 2, 2018
Time Temperature Dew Point Pressure Wind Wind Speed Wind Gust Humidity Rainfall Rate (Hourly) solar Conditions
-17.8 °C -17.8 °C 0 hPa Calm     Humidity% 0 mm SoftwareType W/m2 Conditions
00:00 -17.2 °C -17.7 °C 33477.4 hPa ESE 0.3 km/h 3.1 km/h 93% 0 mm WeatherDisplay:10.37 W/m2 RA
00:01 -17.2 °C -17.7 °C 33477.4 hPa Calm     93% 0 mm WeatherDisplay:10.37 W/m2 RA
00:06 -17.1 °C -17.6 °C 33477.4 hPa Calm     94% 0 mm WeatherDisplay:10.37 W/m2 RA
00:11 -17.1 °C -17.6 °C 33477.4 hPa South 5 km/h 10.3 km/h 94% 0 mm WeatherDisplay:10.37 W/m2 FEW
00:16 -16.8 °C -17.3 °C 33477.4 hPa South 2.3 km/h 9 km/h 94% 0 mm WeatherDisplay:10.37 W/m2 FEW
00:22 -16.6 °C -17.1 °C 33477.4 hPa South 3.1 km/h 15 km/h 94% 0 mm WeatherDisplay:10.37 W/m2 FEW
00:26 -16.4 °C -16.9 °C 33490.9 hPa Calm     93% 0 mm WeatherDisplay:10.37 W/m2 FEW
00:31 -16.3 °C -16.8 °C 33490.9 hPa South 1.6 km/h 6 km/h 94% 0 mm WeatherDisplay:10.37 W/m2 FEW
00:36 -16.2 °C -16.7 °C 33490.9 hPa South 4.2 km/h 9 km/h 94% 0 mm WeatherDisplay:10.37 W/m2 FEW
00:40 -16.2 °C -16.7 °C 33490.9 hPa Calm     94% 0 mm WeatherDisplay:10.37 W/m2 FEW
00:45 -16.2 °C -16.7 °C 33490.9 hPa Calm     94% 0 mm WeatherDisplay:10.37 W/m2 FEW
00:48 -16.2 °C -16.7 °C 33490.9 hPa Calm   3.1 km/h 94% 0 mm WeatherDisplay:10.37 W/m2 FEW
00:53 -16.2 °C -16.7 °C 33490.9 hPa SW 1.8 km/h 11.9 km/h 94% 0 mm WeatherDisplay:10.37 W/m2 FEW
00:54 -16.2 °C -16.7 °C 33490.9 hPa Calm     94% 0 mm WeatherDisplay:10.37 W/m2 FEW
00:59 -16.2 °C -16.7 °C 33490.9 hPa Calm     94% 0 mm WeatherDisplay:10.37 W/m2 FEW
01:04 -16.2 °C -16.7 °C 33490.9 hPa Calm     94% 0 mm WeatherDisplay:10.37 W/m2 FEW
01:05 -16.2 °C -16.7 °C 33490.9 hPa South 1.8 km/h 7.7 km/h 94% 0 mm WeatherDisplay:10.37 W/m2 FEW
01:10 -16.2 °C -16.6 °C 33490.9 hPa WNW 0.5 km/h 6 km/h 94% 0 mm WeatherDisplay:10.37 W/m2 FEW
01:11 -16.1 °C -16.6 °C 33490.9 hPa Calm   3.1 km/h 94% 0 mm WeatherDisplay:10.37 W/m2 FEW
01:17 -16.1 °C -16.6 °C 33490.9 hPa Calm     94% 7.62 mm WeatherDisplay:10.37 W/m2 RA
01:21 -16.1 °C -16.6 °C 33490.9 hPa SSE 6.8 km/h 9 km/h 94% 7.62 mm WeatherDisplay:10.37 W/m2 RA
01:26 -16.1 °C -16.6 °C 33490.9 hPa SSE 5.1 km/h 15 km/h 94% 12.7 mm WeatherDisplay:10.37 W/m2 RA
01:29 -16.1 °C -16.6 °C 33490.9 hPa SSE 5 km/h 15 km/h 94% 12.7 mm WeatherDisplay:10.37 W/m2 RA
01:34 -16 °C -16.5 °C 33490.9 hPa ENE 2.9 km/h 11.9 km/h 94% 12.7 mm WeatherDisplay:10.37 W/m2 RA
01:39 -16 °C -16.5 °C 33490.9 hPa East 0.5 km/h 6 km/h 94% 12.7 mm WeatherDisplay:10.37 W/m2 FEW
01:42 -16 °C -16.5 °C 33490.9 hPa East 1.3 km/h 9 km/h 94% 12.7 mm WeatherDisplay:10.37 W/m2 FEW
01:48 -16 °C -16.5 °C 33477.4 hPa ESE 2.1 km/h 9 km/h 94% 12.7 mm WeatherDisplay:10.37 W/m2 FEW
01:53 -16.1 °C -16.6 °C 33477.4 hPa Calm     94% 12.7 mm WeatherDisplay:10.37 W/m2 FEW
01:56 -16.1 °C -16.6 °C 33477.4 hPa Calm     94% 12.7 mm WeatherDisplay:10.37 W/m2 FEW
02:01 -16.1 °C -16.6 °C 33477.4 hPa SSE 0.8 km/h 9 km/h 94% 12.7 mm WeatherDisplay:10.37 W/m2 FEW
02:06 -16 °C -16.5 °C 33477.4 hPa WSW 5 km/h 20.9 km/h 94% 12.7 mm WeatherDisplay:10.37 W/m2 FEW
02:07 -16 °C -16.5 °C 33477.4 hPa SSE 1.8 km/h 9 km/h 94% 12.7 mm WeatherDisplay:10.37 W/m2 FEW
02:12 -16 °C -16.6 °C 33477.4 hPa SE 0.5 km/h 12.9 km/h 93% 12.7 mm WeatherDisplay:10.37 W/m2 FEW
02:15 -16 °C -16.5 °C 33477.4 hPa South 1.8 km/h 9 km/h 94% 7.62 mm WeatherDisplay:10.37 W/m2 FEW
02:21 -16 °C -16.5 °C 33477.4 hPa SE 2.9 km/h 12.9 km/h 94% 7.62 mm WeatherDisplay:10.37 W/m2 FEW
02:24 -16 °C -16.6 °C 33477.4 hPa SE 1.3 km/h 9 km/h 93% 7.62 mm WeatherDisplay:10.37 W/m2 FEW
02:30 -15.9 °C -16.4 °C 33477.4 hPa SW 2.3 km/h 9 km/h 94% 0 mm WeatherDisplay:10.37 W/m2 FEW
02:35 -16 °C -16.5 °C 33490.9 hPa Calm     94% 0 mm WeatherDisplay:10.37 W/m2 FEW
02:40 -16.1 °C -16.6 °C 33490.9 hPa West 3.1 km/h 9 km/h 94% 0 mm WeatherDisplay:10.37 W/m2 FEW
02:45 -16.1 °C -16.6 °C 33490.9 hPa South 6 km/h 26.9 km/h 94% 0 mm WeatherDisplay:10.37 W/m2 FEW
02:50 -16 °C -16.5 °C 33490.9 hPa Calm     94% 0 mm WeatherDisplay:10.37 W/m2 FEW
02:55 -15.9 °C -16.4 °C 33490.9 hPa SSW 1.3 km/h 11.9 km/h 94% 0 mm WeatherDisplay:10.37 W/m2 FEW
02:57 -15.9 °C -16.4 °C 33490.9 hPa SSW 0.5 km/h 5.1 km/h 94% 0 mm WeatherDisplay:10.37 W/m2 FEW
03:03 -16 °C -16.5 °C 33490.9 hPa SSE 1.6 km/h 9 km/h 94% 0 mm WeatherDisplay:10.37 W/m2 FEW
03:04 -16 °C -16.5 °C 33490.9 hPa SSE 1.3 km/h 9 km/h 94% 0 mm WeatherDisplay:10.37 W/m2 FEW
03:10 -15.9 °C -16.4 °C 33490.9 hPa SE 2.1 km/h 12.9 km/h 94% 0 mm WeatherDisplay:10.37 W/m2 FEW
03:12 -15.9 °C -16.4 °C 33490.9 hPa South 0.3 km/h 11.9 km/h 94% 0 mm WeatherDisplay:10.37 W/m2 FEW
03:18 -15.9 °C -16.4 °C 33490.9 hPa SSE 4.3 km/h 11.9 km/h 94% 0 mm WeatherDisplay:10.37 W/m2 FEW
03:23 -15.9 °C -16.4 °C 33490.9 hPa South 2.6 km/h 15 km/h 94% 0 mm WeatherDisplay:10.37 W/m2 FEW
03:26 -16 °C -16.5 °C 33490.9 hPa ESE 3.4 km/h 10.3 km/h 94% 0 mm WeatherDisplay:10.37 W/m2 FEW
03:31 -15.9 °C -16.4 °C 33490.9 hPa SE 0.3 km/h 3.1 km/h 94% 0 mm WeatherDisplay:10.37 W/m2 FEW
03:33 -15.9 °C -16.4 °C 33477.4 hPa South 2.3 km/h 11.9 km/h 94% 0 mm WeatherDisplay:10.37 W/m2 FEW
03:38 -16 °C -16.5 °C 33490.9 hPa ESE 2.6 km/h 17.9 km/h 94% 0 mm WeatherDisplay:10.37 W/m2 FEW
03:40 -16 °C -16.5 °C 33477.4 hPa Calm   11.9 km/h 94% 0 mm WeatherDisplay:10.37 W/m2 FEW
03:45 -15.9 °C -16.4 °C 33477.4 hPa SSW 5 km/h 9 km/h 94% 0 mm WeatherDisplay:10.37 W/m2 FEW
03:49 -15.9 °C -16.4 °C 33477.4 hPa Calm     94% 0 mm WeatherDisplay:10.37 W/m2 FEW
03:54 -16 °C -16.5 °C 33477.4 hPa SE 0.3 km/h 3.1 km/h 94% 0 mm WeatherDisplay:10.37 W/m2 FEW
03:59 -16 °C -16.5 °C 33477.4 hPa SSW 7.2 km/h 25.9 km/h 94% 0 mm WeatherDisplay:10.37 W/m2 FEW
04:03 -15.9 °C -16.4 °C 33477.4 hPa Calm   3.1 km/h 94% 0 mm WeatherDisplay:10.37 W/m2 FEW
04:08 -15.9 °C -16.4 °C 33477.4 hPa SSE 7.7 km/h 23.8 km/h 94% 0 mm WeatherDisplay:10.37 W/m2 FEW
04:11 -15.9 °C -16.4 °C 33477.4 hPa SE 4.3 km/h 23.8 km/h 94% 0 mm WeatherDisplay:10.37 W/m2 FEW
04:17 -15.9 °C -16.4 °C 33467.2 hPa South 5.5 km/h 11.9 km/h 94% 0 mm WeatherDisplay:10.37 W/m2 FEW
04:22 -15.9 °C -16.4 °C 33467.2 hPa SSE 0.8 km/h 6 km/h 94% 0 mm WeatherDisplay:10.37 W/m2 FEW
04:27 -16 °C -16.5 °C 33467.2 hPa Calm   11.9 km/h 94% 0 mm WeatherDisplay:10.37 W/m2 FEW
04:32 -16 °C -16.5 °C 33467.2 hPa SSE 0.8 km/h   94% 0 mm WeatherDisplay:10.37 W/m2 FEW
04:37 -16 °C -16.5 °C 33467.2 hPa Calm   3.1 km/h 94% 0 mm WeatherDisplay:10.37 W/m2 FEW
04:43 -16 °C -16.5 °C 33467.2 hPa SE 1.8 km/h 9 km/h 94% 0 mm WeatherDisplay:10.37 W/m2 FEW
04:48 -16 °C -16.5 °C 33467.2 hPa Calm   6 km/h 94% 0 mm WeatherDisplay:10.37 W/m2 FEW
04:53 -16.1 °C -16.6 °C 33467.2 hPa SE 2.3 km/h 6 km/h 94% 0 mm WeatherDisplay:10.37 W/m2 FEW
04:59 -16.1 °C -16.6 °C 33467.2 hPa ESE 1.3 km/h 17.9 km/h 94% 0 mm WeatherDisplay:10.37 W/m2 FEW
05:04 -16.1 °C -16.6 °C 33467.2 hPa SSE 1.6 km/h 11.9 km/h 94% 0 mm WeatherDisplay:10.37 W/m2 FEW
05:09 -16.1 °C -16.6 °C 33467.2 hPa Calm     93% 7.62 mm WeatherDisplay:10.37 W/m2 RA
05:20 -16.1 °C -16.6 °C 33467.2 hPa Calm   9 km/h 93% 7.62 mm WeatherDisplay:10.37 W/m2 FEW
05:25 -16 °C -16.5 °C 33453.7 hPa SSE 9.3 km/h 15.6 km/h 94% 7.62 mm WeatherDisplay:10.37 W/m2 FEW
05:30 -16 °C -16.5 °C 33467.2 hPa North 3.1 km/h 9 km/h 94% 7.62 mm WeatherDisplay:10.37 W/m2 FEW
05:35 -16 °C -16.5 °C 33467.2 hPa SSW 1.3 km/h 26.9 km/h 94% 7.62 mm WeatherDisplay:10.37 W/m2 FEW
05:45 -16 °C -16.5 °C 33467.2 hPa SE 1 km/h   94% 7.62 mm WeatherDisplay:10.37 W/m2 FEW
05:50 -16.1 °C -16.6 °C 33467.2 hPa SSW 1 km/h   93% 7.62 mm WeatherDisplay:10.37 W/m2 FEW
06:00 -16.1 °C -16.6 °C 33477.4 hPa Calm     93% 7.62 mm WeatherDisplay:10.37 W/m2 FEW
06:06 -16.1 °C -16.7 °C 33477.4 hPa SW 7.7 km/h 23.8 km/h 93% 0 mm WeatherDisplay:10.37 W/m2 FEW
06:11 -16.1 °C -16.7 °C 33477.4 hPa South 7.6 km/h 9 km/h 93% 0 mm WeatherDisplay:10.37 W/m2 FEW
06:13 -16.2 °C -16.7 °C 33477.4 hPa Calm   9 km/h 93% 0 mm WeatherDisplay:10.37 W/m2 FEW
06:18 -16.2 °C -16.6 °C 33477.4 hPa SSE 2.1 km/h 23.8 km/h 94% 0 mm WeatherDisplay:10.37 W/m2 FEW
06:23 -16.2 °C -16.7 °C 33477.4 hPa Calm   9 km/h 94% 0 mm WeatherDisplay:10.37 W/m2 FEW
06:28 -16.2 °C -16.7 °C 33477.4 hPa South 4.7 km/h 15 km/h 94% 0 mm WeatherDisplay:10.37 W/m2 FEW
06:29 -16.2 °C -16.7 °C 33477.4 hPa South 2.9 km/h 9 km/h 94% 0 mm WeatherDisplay:10.37 W/m2 FEW
06:34 -16.2 °C -16.7 °C 33477.4 hPa Calm     94% 0 mm WeatherDisplay:10.37 W/m2 FEW
06:41 -16.2 °C -16.6 °C 33477.4 hPa SE 2.3 km/h 12.9 km/h 94% 0 mm WeatherDisplay:10.37 W/m2 FEW
06:46 -16.2 °C -16.6 °C 33490.9 hPa South 1.6 km/h 9 km/h 94% 0 mm WeatherDisplay:10.37 W/m2 FEW
06:51 -16.2 °C -16.7 °C 33490.9 hPa Calm     94% 0 mm WeatherDisplay:10.37 W/m2 FEW
06:56 -16.2 °C -16.8 °C 33490.9 hPa SSE 0.3 km/h 3.1 km/h 93% 0 mm WeatherDisplay:10.37 W/m2 FEW
07:00 -16.3 °C -16.8 °C 33490.9 hPa Calm     93% 0 mm WeatherDisplay:10.37 W/m2 FEW
07:04 -16.3 °C -16.8 °C 33490.9 hPa Calm     93% 0 mm WeatherDisplay:10.37 W/m2 FEW
07:09 -16.3 °C -16.8 °C 33490.9 hPa ESE 0.3 km/h 3.1 km/h 93% 0 mm WeatherDisplay:10.37 W/m2 FEW
07:10 -16.3 °C -16.8 °C 33490.9 hPa Calm     93% 0 mm WeatherDisplay:10.37 W/m2 FEW
07:15 -16.3 °C -16.8 °C 33490.9 hPa SSE 1.8 km/h 9 km/h 94% 0 mm WeatherDisplay:10.37 W/m2 FEW
07:25 -16.4 °C -16.9 °C 33501.1 hPa Calm     93% 0 mm WeatherDisplay:10.37 W/m2 FEW
07:30 -16.4 °C -17 °C 33501.1 hPa Calm     93% 0 mm WeatherDisplay:10.37 W/m2 FEW
07:31 -16.4 °C -17 °C 33501.1 hPa Calm     93% 0 mm WeatherDisplay:10.37 W/m2 FEW
07:36 -16.4 °C -17 °C 33501.1 hPa Calm     93% 0 mm WeatherDisplay:10.37 W/m2 FEW
07:41 -16.4 °C -17 °C 33501.1 hPa Calm     93% 0 mm WeatherDisplay:10.37 W/m2 FEW
07:46 -16.4 °C -17 °C 33501.1 hPa Calm     93% 0 mm WeatherDisplay:10.37 W/m2 FEW
07:53 -16.4 °C -17 °C 33501.1 hPa Calm     93% 0 mm WeatherDisplay:10.37 W/m2 FEW
07:58 -16.5 °C -17.1 °C 33511.2 hPa Calm     93% 0 mm WeatherDisplay:10.37 W/m2 FEW
08:08 -16.5 °C -17.1 °C 33511.2 hPa Calm     93% 0 mm WeatherDisplay:10.37 W/m2 FEW
08:09 -16.5 °C -17.1 °C 33511.2 hPa Calm     93% 0 mm WeatherDisplay:10.37 W/m2 FEW
08:10 -16.5 °C -17.1 °C 33524.8 hPa SSE 1.8 km/h 9 km/h 93% 0 mm WeatherDisplay:10.37 W/m2 FEW
08:16 -16.5 °C -17.1 °C 33524.8 hPa Calm   3.1 km/h 93% 0 mm WeatherDisplay:10.37 W/m2 FEW
08:19 -16.4 °C -17 °C 33524.8 hPa Calm     93% 0 mm WeatherDisplay:10.37 W/m2 FEW
08:34 -16.4 °C -17 °C 33534.9 hPa Calm     93% 0 mm WeatherDisplay:10.37 W/m2 FEW
08:39 -16.4 °C -17 °C 33534.9 hPa Calm     93% 0 mm WeatherDisplay:10.37 W/m2 FEW
08:44 -16.4 °C -17 °C 33534.9 hPa Calm     93% 0 mm WeatherDisplay:10.37 W/m2 FEW
08:46 -16.4 °C -17 °C 33534.9 hPa Calm     93% 0 mm WeatherDisplay:10.37 W/m2 FEW
08:51 -16.4 °C -16.9 °C 33534.9 hPa Calm     93% 0 mm WeatherDisplay:10.37 W/m2 FEW
08:56 -16.4 °C -17 °C 33545.1 hPa SSE 0.3 km/h   93% 0 mm WeatherDisplay:10.37 W/m2 FEW
09:01 -16.4 °C -17 °C 33545.1 hPa SSE 0.8 km/h 6 km/h 93% 0 mm WeatherDisplay:10.37 W/m2 FEW
09:06 -16.4 °C -17 °C 33545.1 hPa Calm     93% 0 mm WeatherDisplay:10.37 W/m2 FEW
09:11 -16.3 °C -16.8 °C 33558.6 hPa Calm     94% 0 mm WeatherDisplay:10.37 W/m2 FEW
09:14 -16.3 °C -16.8 °C 33558.6 hPa Calm     94% 0 mm WeatherDisplay:10.37 W/m2 FEW
09:19 -16.3 °C -16.8 °C 33568.8 hPa Calm     94% 0 mm WeatherDisplay:10.37 W/m2 FEW
09:24 -16.3 °C -16.8 °C 33568.8 hPa Calm     93% 0 mm WeatherDisplay:10.37 W/m2 FEW
09:29 -16.3 °C -16.8 °C 33582.3 hPa Calm     93% 0 mm WeatherDisplay:10.37 W/m2 FEW
09:30 -16.3 °C -16.8 °C 33582.3 hPa Calm     93% 0 mm WeatherDisplay:10.37 W/m2 FEW
09:35 -16.2 °C -16.7 °C 33582.3 hPa West 1 km/h 3.1 km/h 94% 0 mm WeatherDisplay:10.37 W/m2 FEW
09:36 -16.2 °C -16.7 °C 33582.3 hPa West 0.5 km/h 3.1 km/h 94% 0 mm WeatherDisplay:10.37 W/m2 FEW
09:48 -16.1 °C -16.6 °C 33592.5 hPa South 2.3 km/h   94% 0 mm WeatherDisplay:10.37 W/m2 FEW
09:53 -16.1 °C -16.6 °C 33602.7 hPa Calm   9 km/h 94% 0 mm WeatherDisplay:10.37 W/m2 FEW
09:58 -16.1 °C -16.6 °C 33602.7 hPa SW 9.8 km/h 20.9 km/h 94% 7.62 mm WeatherDisplay:10.37 W/m2 RA
10:03 -16.2 °C -16.6 °C 33616.2 hPa NW 3.1 km/h 29.8 km/h 94% 7.62 mm WeatherDisplay:10.37 W/m2 RA
10:08 -16.3 °C -16.8 °C 33616.2 hPa West 9.3 km/h 17.9 km/h 94% 7.62 mm WeatherDisplay:10.37 W/m2 FEW
10:13 -16.3 °C -16.8 °C 33626.4 hPa NW 2.3 km/h 18.2 km/h 94% 7.62 mm WeatherDisplay:10.37 W/m2 FEW
10:18 -16.4 °C -16.5 °C 33639.9 hPa West 2.1 km/h 6 km/h 99% 7.62 mm WeatherDisplay:10.37 W/m2 FEW
10:19 -16.4 °C -17 °C 33639.9 hPa SSW 3.1 km/h 9 km/h 93% 7.62 mm WeatherDisplay:10.37 W/m2 FEW
10:24 -16.4 °C -17 °C 33639.9 hPa West 6 km/h 9 km/h 93% 7.62 mm WeatherDisplay:10.37 W/m2 FEW
10:28 -16.5 °C -17.1 °C 33639.9 hPa WSW 1.3 km/h 6 km/h 93% 7.62 mm WeatherDisplay:10.37 W/m2 FEW
10:34 -16.5 °C -17 °C 33639.9 hPa WNW 1.6 km/h 9 km/h 94% 7.62 mm WeatherDisplay:10.37 W/m2 FEW
10:40 -16.5 °C -17 °C 33650.1 hPa West 3.9 km/h 6 km/h 94% 7.62 mm WeatherDisplay:10.37 W/m2 FEW
10:44 -16.5 °C -17 °C 33650.1 hPa West 2.6 km/h 20.9 km/h 94% 7.62 mm WeatherDisplay:10.37 W/m2 FEW
10:49 -16.5 °C -17 °C 33650.1 hPa NNW 5.5 km/h 9 km/h 94% 7.62 mm WeatherDisplay:10.37 W/m2 FEW
10:54 -16.6 °C -17.1 °C 33660.2 hPa West 0.3 km/h 3.1 km/h 94% 7.62 mm WeatherDisplay:10.37 W/m2 FEW
10:59 -16.6 °C -17.1 °C 33660.2 hPa West 1.3 km/h 9 km/h 94% 0 mm WeatherDisplay:10.37 W/m2 FEW
11:04 -16.6 °C -17.1 °C 33673.8 hPa Calm   3.1 km/h 94% 0 mm WeatherDisplay:10.37 W/m2 FEW
11:09 -16.6 °C -17.1 °C 33673.8 hPa SSW 2.9 km/h 17.9 km/h 94% 0 mm WeatherDisplay:10.37 W/m2 FEW
11:12 -16.6 °C -17.1 °C 33683.9 hPa South 2.1 km/h 17.9 km/h 94% 0 mm WeatherDisplay:10.37 W/m2 FEW
11:17 -16.6 °C -17.1 °C 33683.9 hPa Calm   9 km/h 94% 0 mm WeatherDisplay:10.37 W/m2 FEW
11:18 -16.6 °C -17.1 °C 33683.9 hPa West 0.5 km/h 2.6 km/h 94% 0 mm WeatherDisplay:10.37 W/m2 FEW
11:23 -16.6 °C -17.1 °C 33683.9 hPa NNW 3.7 km/h 9 km/h 94% 0 mm WeatherDisplay:10.37 W/m2 FEW
11:28 -16.6 °C -17.1 °C 33694.1 hPa SSW 0.5 km/h 9 km/h 94% 0 mm WeatherDisplay:10.37 W/m2 FEW
11:33 -16.6 °C -17.1 °C 33694.1 hPa WSW 6.9 km/h 10.3 km/h 94% 0 mm WeatherDisplay:10.37 W/m2 FEW
11:38 -16.6 °C -17.1 °C 33694.1 hPa West 7.6 km/h 7.7 km/h 94% 0 mm WeatherDisplay:10.37 W/m2 FEW
11:43 -16.6 °C -17.1 °C 33707.6 hPa Calm   11.9 km/h 94% 0 mm WeatherDisplay:10.37 W/m2 FEW
11:48 -16.6 °C -17.1 °C 33707.6 hPa NNW 1.6 km/h 9 km/h 93% 0 mm WeatherDisplay:10.37 W/m2 FEW
11:54 -16.6 °C -17.1 °C 33707.6 hPa NW 3.1 km/h 9 km/h 94% 0 mm WeatherDisplay:10.37 W/m2 FEW
11:58 -16.6 °C -17.1 °C 33717.8 hPa WNW 2.9 km/h 10.3 km/h 93% 0 mm WeatherDisplay:10.37 W/m2 FEW
12:08 -16.6 °C -17.1 °C 33717.8 hPa WSW 0.5 km/h 6 km/h 93% 0 mm WeatherDisplay:10.37 W/m2 FEW
12:15 -16.6 °C -17.1 °C 33717.8 hPa WSW 3.1 km/h 5.1 km/h 93% 0 mm WeatherDisplay:10.37 W/m2 FEW
12:21 -16.6 °C -17.1 °C 33717.8 hPa Calm     93% 0 mm WeatherDisplay:10.37 W/m2 FEW
12:26 -16.5 °C -17.1 °C 33731.3 hPa WNW 5.5 km/h 23.8 km/h 93% 0 mm WeatherDisplay:10.37 W/m2 FEW
12:31 -16.6 °C -17.1 °C 33731.3 hPa WSW 0.3 km/h   93% 0 mm WeatherDisplay:10.37 W/m2 FEW
12:32 -16.6 °C -17.1 °C 33731.3 hPa WSW 0.3 km/h 5.1 km/h 93% 0 mm WeatherDisplay:10.37 W/m2 FEW
12:35 -16.6 °C -17.1 °C 33731.3 hPa West 1.8 km/h 9 km/h 93% 0 mm WeatherDisplay:10.37 W/m2 FEW
12:40 -16.6 °C -17.1 °C 33741.5 hPa Calm   15 km/h 93% 0 mm WeatherDisplay:10.37 W/m2 FEW
12:45 -16.6 °C -17.1 °C 33741.5 hPa Calm   11.9 km/h 93% 0 mm WeatherDisplay:10.37 W/m2 FEW
12:50 -16.6 °C -17.1 °C 33741.5 hPa WNW 0.8 km/h 6 km/h 93% 0 mm WeatherDisplay:10.37 W/m2 FEW
12:51 -16.6 °C -17.1 °C 33741.5 hPa WNW 0.8 km/h 6 km/h 93% 0 mm WeatherDisplay:10.37 W/m2 FEW
13:02 -16.6 °C -17.1 °C 33751.6 hPa WSW 1.3 km/h 9 km/h 93% 0 mm WeatherDisplay:10.37 W/m2 FEW
13:07 -16.5 °C -17 °C 33751.6 hPa Calm   5.1 km/h 94% 0 mm WeatherDisplay:10.37 W/m2 FEW
13:12 -16.5 °C -17 °C 33751.6 hPa West 2.3 km/h 9 km/h 94% 0 mm WeatherDisplay:10.37 W/m2 FEW
13:19 -16.5 °C -17.1 °C 33765.2 hPa Calm   2.6 km/h 93% 0 mm WeatherDisplay:10.37 W/m2 FEW
13:24 -16.4 °C -17 °C 33765.2 hPa Calm     93% 0 mm WeatherDisplay:10.37 W/m2 FEW
13:29 -16.4 °C -17 °C 33765.2 hPa Calm     93% 0 mm WeatherDisplay:10.37 W/m2 FEW
13:32 -16.4 °C -17 °C 33765.2 hPa Calm     93% 0 mm WeatherDisplay:10.37 W/m2 FEW
13:36 -16.4 °C -17 °C 33775.4 hPa Calm     93% 0 mm WeatherDisplay:10.37 W/m2 FEW
13:41 -16.4 °C -16.9 °C 33775.4 hPa Calm     93% 0 mm WeatherDisplay:10.37 W/m2 FEW
13:46 -16.4 °C -17 °C 33775.4 hPa Calm     93% 0 mm WeatherDisplay:10.37 W/m2 FEW
13:51 -16.4 °C -17 °C 33788.9 hPa Calm     93% 0 mm WeatherDisplay:10.37 W/m2 FEW
14:01 -16.4 °C -17 °C 33788.9 hPa Calm     93% 0 mm WeatherDisplay:10.37 W/m2 FEW
14:05 -16.4 °C -17 °C 33799.1 hPa Calm     93% 0 mm WeatherDisplay:10.37 W/m2 FEW
14:11 -16.4 °C -17 °C 33799.1 hPa NNE 1 km/h 6 km/h 93% 0 mm WeatherDisplay:10.37 W/m2 FEW
14:16 -16.4 °C -17 °C 33799.1 hPa Calm     93% 0 mm WeatherDisplay:10.37 W/m2 FEW
14:24 -16.4 °C -17 °C 33799.1 hPa Calm     93% 0 mm WeatherDisplay:10.37 W/m2 FEW
14:39 -16.4 °C -17 °C 33799.1 hPa Calm     93% 0 mm WeatherDisplay:10.37 W/m2 FEW
14:41 -16.4 °C -17 °C 33799.1 hPa Calm     93% 0 mm WeatherDisplay:10.37 W/m2 FEW
14:46 -16.4 °C -17 °C 33799.1 hPa Calm     93% 0 mm WeatherDisplay:10.37 W/m2 FEW
14:49 -16.4 °C -17 °C 33799.1 hPa Calm     93% 0 mm WeatherDisplay:10.37 W/m2 FEW
14:51 -16.4 °C -17 °C 33809.2 hPa Calm     93% 0 mm WeatherDisplay:10.37 W/m2 FEW
14:55 -16.4 °C -17 °C 33809.2 hPa Calm     93% 0 mm WeatherDisplay:10.37 W/m2 FEW
15:01 -16.4 °C -17 °C 33809.2 hPa Calm     93% 0 mm WeatherDisplay:10.37 W/m2 FEW
15:06 -16.4 °C -17 °C 33809.2 hPa Calm     93% 0 mm WeatherDisplay:10.37 W/m2 FEW
15:11 -16.4 °C -17 °C 33809.2 hPa Calm     93% 0 mm WeatherDisplay:10.37 W/m2 FEW
15:16 -16.4 °C -17 °C 33809.2 hPa Calm     93% 0 mm WeatherDisplay:10.37 W/m2 FEW
15:22 -16.4 °C -17 °C 33809.2 hPa Calm     93% 0 mm WeatherDisplay:10.37 W/m2 FEW
15:27 -16.4 °C -17 °C 33809.2 hPa Calm     93% 0 mm WeatherDisplay:10.37 W/m2 FEW
15:32 -16.5 °C -17.1 °C 33809.2 hPa Calm     93% 0 mm WeatherDisplay:10.37 W/m2 FEW
15:42 -16.6 °C -17.1 °C 33809.2 hPa Calm     93% 0 mm WeatherDisplay:10.37 W/m2 FEW
15:47 -16.6 °C -17.1 °C 33809.2 hPa Calm     93% 0 mm WeatherDisplay:10.37 W/m2 FEW
15:49 -16.6 °C -17.2 °C 33822.8 hPa Calm     93% 0 mm WeatherDisplay:10.37 W/m2 FEW
15:55 -16.6 °C -17.2 °C 33822.8 hPa Calm     93% 0 mm WeatherDisplay:10.37 W/m2 FEW
15:57 -16.6 °C -17.2 °C 33822.8 hPa Calm     93% 0 mm WeatherDisplay:10.37 W/m2 FEW
16:03 -16.6 °C -17.2 °C 33822.8 hPa Calm     93% 0 mm WeatherDisplay:10.37 W/m2 FEW
16:12 -16.7 °C -17.2 °C 33822.8 hPa Calm     93% 0 mm WeatherDisplay:10.37 W/m2 FEW
16:19 -16.7 °C -17.2 °C 33822.8 hPa Calm     93% 0 mm WeatherDisplay:10.37 W/m2 FEW
16:24 -16.6 °C -17.2 °C 33822.8 hPa SE 0.8 km/h 6 km/h 93% 0 mm WeatherDisplay:10.37 W/m2 FEW
16:29 -16.6 °C -17.2 °C 33822.8 hPa Calm     93% 0 mm WeatherDisplay:10.37 W/m2 FEW
16:34 -16.6 °C -17.2 °C 33822.8 hPa SSE 1 km/h 6 km/h 93% 0 mm WeatherDisplay:10.37 W/m2 FEW
16:36 -16.6 °C -17.1 °C 33822.8 hPa SSE 0.8 km/h 9 km/h 93% 0 mm WeatherDisplay:10.37 W/m2 FEW
16:40 -16.5 °C -17.1 °C 33822.8 hPa Calm     93% 0 mm WeatherDisplay:10.37 W/m2 FEW
16:45 -16.4 °C -17 °C 33822.8 hPa Calm     93% 0 mm WeatherDisplay:10.37 W/m2 FEW
16:50 -16.4 °C -17 °C 33822.8 hPa South 3.1 km/h 3.1 km/h 93% 0 mm WeatherDisplay:10.37 W/m2 FEW
16:51 -16.4 °C -17 °C 33822.8 hPa South 2.9 km/h 9 km/h 93% 0 mm WeatherDisplay:10.37 W/m2 FEW
17:06 -16.3 °C -16.9 °C 33832.9 hPa Calm     93% 0 mm WeatherDisplay:10.37 W/m2 FEW
17:10 -16.3 °C -16.8 °C 33832.9 hPa Calm     93% 0 mm WeatherDisplay:10.37 W/m2 FEW
17:15 -16.3 °C -16.8 °C 33832.9 hPa Calm     93% 0 mm WeatherDisplay:10.37 W/m2 FEW
17:20 -16.2 °C -16.7 °C 33832.9 hPa SE 7.6 km/h 17.9 km/h 93% 7.62 mm WeatherDisplay:10.37 W/m2 RA
17:25 -16.1 °C -16.7 °C 33832.9 hPa SE 0.3 km/h 5.1 km/h 93% 7.62 mm WeatherDisplay:10.37 W/m2 RA
17:30 -16.1 °C -16.6 °C 33832.9 hPa SSW 2.3 km/h 9 km/h 93% 7.62 mm WeatherDisplay:10.37 W/m2 FEW
17:31 -16.1 °C -16.6 °C 33832.9 hPa SSW 1.6 km/h 9 km/h 93% 7.62 mm WeatherDisplay:10.37 W/m2 FEW
17:36 -16 °C -16.6 °C 33832.9 hPa SE 1.3 km/h 6 km/h 93% 7.62 mm WeatherDisplay:10.37 W/m2 FEW
17:38 -16 °C -16.6 °C 33832.9 hPa Calm   3.1 km/h 93% 7.62 mm WeatherDisplay:10.37 W/m2 FEW
17:47 -16 °C -16.6 °C 33832.9 hPa SSW 5.1 km/h 15.6 km/h 93% 7.62 mm WeatherDisplay:10.37 W/m2 FEW
17:57 -16 °C -16.6 °C 33843.1 hPa South 0.8 km/h 6 km/h 93% 7.62 mm WeatherDisplay:10.37 W/m2 FEW
18:02 -16 °C -16.6 °C 33843.1 hPa SSW 6.8 km/h 11.9 km/h 93% 7.62 mm WeatherDisplay:10.37 W/m2 FEW
18:12 -16 °C -16.6 °C 33843.1 hPa Calm     93% 7.62 mm WeatherDisplay:10.37 W/m2 FEW
18:14 -16 °C -16.6 °C 33843.1 hPa SSE 0.8 km/h 6 km/h 93% 7.62 mm WeatherDisplay:10.37 W/m2 FEW
18:19 -16 °C -16.6 °C 33843.1 hPa SSE 4.3 km/h 12.9 km/h 93% 0 mm WeatherDisplay:10.37 W/m2 FEW
18:25 -16 °C -16.6 °C 33843.1 hPa SSE 6 km/h 17.9 km/h 93% 0 mm WeatherDisplay:10.37 W/m2 FEW
18:30 -16 °C -16.6 °C 33843.1 hPa South 1.6 km/h 9 km/h 93% 0 mm WeatherDisplay:10.37 W/m2 FEW
18:35 -15.9 °C -16.5 °C 33843.1 hPa Calm     93% 0 mm WeatherDisplay:10.37 W/m2 FEW
18:45 -16 °C -16.6 °C 33856.6 hPa Calm     93% 0 mm WeatherDisplay:10.37 W/m2 FEW
18:55 -15.9 °C -16.5 °C 33856.6 hPa South 1.3 km/h 9 km/h 93% 0 mm WeatherDisplay:10.37 W/m2 FEW
18:59 -15.9 °C -16.5 °C 33856.6 hPa SSW 6.4 km/h 23.8 km/h 93% 0 mm WeatherDisplay:10.37 W/m2 FEW
19:04 -15.9 °C -16.5 °C 33856.6 hPa Calm   3.1 km/h 93% 0 mm WeatherDisplay:10.37 W/m2 FEW
19:07 -15.9 °C -16.5 °C 33856.6 hPa West 4.3 km/h 11.9 km/h 93% 0 mm WeatherDisplay:10.37 W/m2 FEW
19:12 -15.9 °C -16.5 °C 33856.6 hPa SSW 5 km/h 26.9 km/h 93% 7.62 mm WeatherDisplay:10.37 W/m2 RA
19:16 -15.9 °C -16.5 °C 33856.6 hPa WSW 4.2 km/h 11.9 km/h 93% 7.62 mm WeatherDisplay:10.37 W/m2 RA
19:26 -15.9 °C -16.5 °C 33856.6 hPa South 3.7 km/h 11.9 km/h 93% 7.62 mm WeatherDisplay:10.37 W/m2 FEW
19:31 -15.9 °C -16.5 °C 33856.6 hPa West 1.6 km/h 6 km/h 93% 7.62 mm WeatherDisplay:10.37 W/m2 FEW
19:36 -15.9 °C -16.5 °C 33856.6 hPa South 5 km/h 17.9 km/h 93% 7.62 mm WeatherDisplay:10.37 W/m2 FEW
19:41 -15.9 °C -16.5 °C 33856.6 hPa SE 2.9 km/h 9 km/h 93% 7.62 mm WeatherDisplay:10.37 W/m2 FEW
19:44 -15.9 °C -16.5 °C 33856.6 hPa Calm     93% 7.62 mm WeatherDisplay:10.37 W/m2 FEW
19:49 -16 °C -16.6 °C 33856.6 hPa SE 2.6 km/h 9 km/h 93% 7.62 mm WeatherDisplay:10.37 W/m2 FEW
19:51 -16 °C -16.6 °C 33856.6 hPa Calm     93% 7.62 mm WeatherDisplay:10.37 W/m2 FEW
19:53 -16 °C -16.6 °C 33856.6 hPa Calm     93% 7.62 mm WeatherDisplay:10.37 W/m2 FEW
19:58 -16 °C -16.6 °C 33856.6 hPa SSE 6.3 km/h 9 km/h 93% 7.62 mm WeatherDisplay:10.37 W/m2 FEW
20:03 -16 °C -16.6 °C 33856.6 hPa Calm     93% 7.62 mm WeatherDisplay:10.37 W/m2 FEW
20:07 -16 °C -16.6 °C 33866.8 hPa Calm     93% 7.62 mm WeatherDisplay:10.37 W/m2 FEW
20:12 -16 °C -16.6 °C 33866.8 hPa Calm     93% 0 mm WeatherDisplay:10.37 W/m2 FEW
20:13 -16 °C -16.6 °C 33866.8 hPa SSE 11.4 km/h 32.8 km/h 93% 0 mm WeatherDisplay:10.37 W/m2 FEW
20:18 -16 °C -16.6 °C 33866.8 hPa SSW 0.8 km/h 9 km/h 93% 0 mm WeatherDisplay:10.37 W/m2 FEW
20:23 -15.9 °C -16.5 °C 33856.6 hPa South 5.1 km/h 15.6 km/h 93% 0 mm WeatherDisplay:10.37 W/m2 FEW
20:29 -16 °C -16.6 °C 33856.6 hPa South 1 km/h 9 km/h 93% 0 mm WeatherDisplay:10.37 W/m2 FEW
20:35 -16 °C -16.5 °C 33866.8 hPa South 5 km/h 15 km/h 94% 0 mm WeatherDisplay:10.37 W/m2 FEW
20:36 -16.1 °C -16.6 °C 33866.8 hPa South 5 km/h 5 km/h 94% 0 mm WeatherDisplay:10.37 W/m2 FEW
20:47 -16.1 °C -16.7 °C 33866.8 hPa SSW 2.9 km/h 9 km/h 93% 0 mm WeatherDisplay:10.37 W/m2 FEW
20:52 -16.1 °C -16.7 °C 33866.8 hPa Calm     93% 0 mm WeatherDisplay:10.37 W/m2 FEW
20:57 -16.1 °C -16.7 °C 33866.8 hPa SE 0.8 km/h 9 km/h 93% 0 mm WeatherDisplay:10.37 W/m2 FEW
21:03 -16.1 °C -16.7 °C 33866.8 hPa Calm     93% 0 mm WeatherDisplay:10.37 W/m2 FEW
21:08 -16.1 °C -16.7 °C 33866.8 hPa Calm     93% 0 mm WeatherDisplay:10.37 W/m2 FEW
21:10 -16.1 °C -16.7 °C 33866.8 hPa Calm   5.1 km/h 93% 0 mm WeatherDisplay:10.37 W/m2 FEW
21:15 -16.1 °C -16.7 °C 33866.8 hPa Calm   3.1 km/h 93% 0 mm WeatherDisplay:10.37 W/m2 FEW
21:20 -16.1 °C -16.7 °C 33866.8 hPa SSE 3.4 km/h 3.4 km/h 93% 0 mm WeatherDisplay:10.37 W/m2 FEW
21:24 -16.2 °C -16.7 °C 33866.8 hPa West 1.3 km/h 17.9 km/h 93% 0 mm WeatherDisplay:10.37 W/m2 FEW
21:35 -16.1 °C -16.6 °C 33866.8 hPa SE 2.1 km/h 18.2 km/h 93% 0 mm WeatherDisplay:10.37 W/m2 FEW
21:40 -16.1 °C -16.6 °C 33866.8 hPa SSE 1 km/h 9 km/h 93% 0 mm WeatherDisplay:10.37 W/m2 FEW
21:45 -16 °C -16.6 °C 33866.8 hPa South 0.3 km/h 6 km/h 93% 0 mm WeatherDisplay:10.37 W/m2 FEW
21:46 -16 °C -16.6 °C 33866.8 hPa WSW 1 km/h 6 km/h 93% 0 mm WeatherDisplay:10.37 W/m2 FEW
21:51 -16 °C -16.6 °C 33880.3 hPa Calm     93% 0 mm WeatherDisplay:10.37 W/m2 FEW
21:55 -16 °C -16.6 °C 33880.3 hPa SW 0.3 km/h 3.1 km/h 93% 0 mm WeatherDisplay:10.37 W/m2 FEW
21:56 -16 °C -16.6 °C 33880.3 hPa South 0.3 km/h 5.1 km/h 93% 0 mm WeatherDisplay:10.37 W/m2 FEW
22:01 -16 °C -16.6 °C 33880.3 hPa SE 6.9 km/h 17.9 km/h 93% 0 mm WeatherDisplay:10.37 W/m2 FEW
22:06 -16 °C -16.6 °C 33880.3 hPa SE 5 km/h 9 km/h 93% 0 mm WeatherDisplay:10.37 W/m2 FEW
22:07 -16 °C -16.6 °C 33880.3 hPa SSE 3.1 km/h 9 km/h 93% 0 mm WeatherDisplay:10.37 W/m2 FEW
22:13 -16 °C -16.6 °C 33880.3 hPa Calm     93% 0 mm WeatherDisplay:10.37 W/m2 FEW
22:18 -15.9 °C -16.5 °C 33880.3 hPa South 9.8 km/h 20.9 km/h 93% 0 mm WeatherDisplay:10.37 W/m2 FEW
22:20 -15.9 °C -16.5 °C 33880.3 hPa SSW 0.8 km/h 11.9 km/h 93% 0 mm WeatherDisplay:10.37 W/m2 FEW
22:26 -15.9 °C -16.5 °C 33880.3 hPa SSE 1.6 km/h 10.3 km/h 93% 0 mm WeatherDisplay:10.37 W/m2 FEW
22:31 -16 °C -16.5 °C 33880.3 hPa South 0.3 km/h 9 km/h 94% 0 mm WeatherDisplay:10.37 W/m2 FEW
22:36 -16 °C -16.5 °C 33880.3 hPa East 1.8 km/h 9 km/h 94% 0 mm WeatherDisplay:10.37 W/m2 FEW
22:41 -16 °C -16.5 °C 33880.3 hPa Calm     94% 0 mm WeatherDisplay:10.37 W/m2 FEW
22:45 -16 °C -16.5 °C 33880.3 hPa South 5 km/h 9 km/h 94% 0 mm WeatherDisplay:10.37 W/m2 FEW
22:46 -16 °C -16.5 °C 33880.3 hPa SW 1 km/h 9 km/h 94% 0 mm WeatherDisplay:10.37 W/m2 FEW
22:51 -15.9 °C -16.4 °C 33880.3 hPa South 5.1 km/h 9 km/h 94% 0 mm WeatherDisplay:10.37 W/m2 FEW
22:52 -15.9 °C -16.4 °C 33880.3 hPa SW 10.6 km/h 26.9 km/h 94% 0 mm WeatherDisplay:10.37 W/m2 FEW
23:02 -15.9 °C -16.5 °C 33890.5 hPa SE 0.5 km/h 6 km/h 93% 0 mm WeatherDisplay:10.37 W/m2 FEW
23:07 -15.9 °C -16.5 °C 33890.5 hPa NNE 3.4 km/h 11.9 km/h 93% 0 mm WeatherDisplay:10.37 W/m2 FEW
23:11 -15.9 °C -16.5 °C 33890.5 hPa South 2.1 km/h 9 km/h 93% 0 mm WeatherDisplay:10.37 W/m2 FEW
23:17 -15.9 °C -16.4 °C 33890.5 hPa Calm     93% 0 mm WeatherDisplay:10.37 W/m2 FEW
23:18 -15.9 °C -16.4 °C 33890.5 hPa Calm   3.1 km/h 93% 0 mm WeatherDisplay:10.37 W/m2 FEW
23:25 -15.9 °C -16.4 °C 33890.5 hPa SW 1 km/h 5.1 km/h 93% 0 mm WeatherDisplay:10.37 W/m2 FEW
23:31 -15.9 °C -16.4 °C 33890.5 hPa SSW 0.3 km/h 5.1 km/h 93% 0 mm WeatherDisplay:10.37 W/m2 FEW
23:41 -15.9 °C -16.4 °C 33890.5 hPa Calm     93% 0 mm WeatherDisplay:10.37 W/m2 FEW
23:46 -15.9 °C -16.5 °C 33890.5 hPa WSW 10.9 km/h 23.8 km/h 93% 0 mm WeatherDisplay:10.37 W/m2 FEW
23:51 -15.9 °C -16.4 °C 33890.5 hPa SSW 1.6 km/h 3.1 km/h 93% 0 mm WeatherDisplay:10.37 W/m2 FEW
23:54 -15.9 °C -16.4 °C 33890.5 hPa SE 3.7 km/h 10.3 km/h 93% 0 mm WeatherDisplay:10.37 W/m2 FEW
Tuulensuunkaari, Veikkola, Suomi
Compliments of Weather Underground - 2.75 mb